Time;durP1;ratioP1;P1;durP2;ratioP2;P2;SDS_P1;SDS_P2;PMS_P1;PMS_P2;Temp;Humidity;BMP_temperature;BMP_pressure;BME280_temperature;BME280_humidity;BME280_pressure;Samples;Min_cycle;Max_cycle;Signal;HPM_P1;HPM_P2
2022/09/17 00:01:32;;;;;;;7.70;4.45;;;;;;;14.15;100.00;99332.31;5092173;28;20119;-71
2022/09/17 00:04:03;;;;;;;7.65;4.75;;;;;;;14.18;100.00;99326.66;5092349;28;20043;-70
2022/09/17 00:06:34;;;;;;;9.13;4.80;;;;;;;14.13;100.00;99328.91;5092480;28;20044;-71
2022/09/17 00:09:05;;;;;;;6.03;4.03;;;;;;;13.99;100.00;99337.31;5092235;28;20052;-70
2022/09/17 00:11:35;;;;;;;8.48;4.80;;;;;;;13.98;100.00;99330.28;5092117;28;20398;-72
2022/09/17 00:14:05;;;;;;;7.65;4.72;;;;;;;14.03;100.00;99331.56;5091554;28;20044;-74
2022/09/17 00:16:38;;;;;;;7.07;4.65;;;;;;;14.03;100.00;99344.13;5092078;28;20036;-71
2022/09/17 00:19:08;;;;;;;7.10;4.68;;;;;;;14.04;100.00;99337.78;5091525;28;20032;-72
2022/09/17 00:21:37;;;;;;;6.35;4.50;;;;;;;14.04;100.00;99329.72;5103230;28;20082;-71
2022/09/17 00:24:07;;;;;;;6.82;4.68;;;;;;;14.13;100.00;99333.44;5111779;28;20071;-71
2022/09/17 00:26:35;;;;;;;9.10;5.10;;;;;;;14.14;100.00;99338.66;5112781;28;20043;-70
2022/09/17 00:29:05;;;;;;;6.80;4.80;;;;;;;14.22;100.00;99333.47;5112458;28;20048;-71
2022/09/17 00:31:34;;;;;;;8.00;4.70;;;;;;;14.27;100.00;99341.91;5094058;28;20134;-70
2022/09/17 00:34:04;;;;;;;7.88;4.70;;;;;;;14.36;100.00;99328.66;5112256;28;20085;-70
2022/09/17 00:36:34;;;;;;;7.18;4.63;;;;;;;14.38;100.00;99326.69;5093834;28;20079;-70
2022/09/17 00:39:04;;;;;;;6.78;4.80;;;;;;;14.37;100.00;99325.84;5112150;28;20046;-70
2022/09/17 00:41:36;;;;;;;7.63;4.53;;;;;;;14.41;100.00;99321.91;5112502;28;20093;-70
2022/09/17 00:44:39;;;;;;;7.03;4.50;;;;;;;14.44;100.00;99315.41;5112082;28;20058;-70
2022/09/17 00:47:13;;;;;;;7.80;4.68;;;;;;;14.37;100.00;99314.25;5106954;28;20105;-71
2022/09/17 00:49:42;;;;;;;6.57;4.75;;;;;;;14.41;100.00;99310.34;5112265;28;20097;-70
2022/09/17 00:52:14;;;;;;;8.93;5.13;;;;;;;14.28;100.00;99306.09;5093756;28;20044;-70
2022/09/17 00:54:49;;;;;;;7.10;5.35;;;;;;;14.29;100.00;99296.22;5112346;28;20093;-70
2022/09/17 00:57:19;;;;;;;7.25;4.88;;;;;;;14.24;100.00;99299.28;5111593;28;20093;-71
2022/09/17 00:59:48;;;;;;;7.45;5.03;;;;;;;14.35;100.00;99295.63;5093696;28;20056;-71
2022/09/17 01:02:17;;;;;;;7.97;5.05;;;;;;;14.35;100.00;99302.84;5111963;28;20056;-71
2022/09/17 01:04:45;;;;;;;7.47;4.82;;;;;;;14.14;100.00;99297.59;5112042;28;20082;-71
2022/09/17 01:07:24;;;;;;;9.25;5.00;;;;;;;14.16;100.00;99284.88;5112286;28;20050;-71
2022/09/17 01:09:57;;;;;;;9.05;5.53;;;;;;;14.17;100.00;99287.41;5112021;28;20039;-70
2022/09/17 01:12:48;;;;;;;7.40;5.03;;;;;;;13.93;100.00;99286.94;5111818;28;20115;-71
2022/09/17 01:15:27;;;;;;;6.97;4.70;;;;;;;13.96;100.00;99290.19;5093550;28;20059;-71
2022/09/17 01:18:11;;;;;;;9.07;5.18;;;;;;;13.85;100.00;99284.94;5112081;28;20077;-70
2022/09/17 01:21:07;;;;;;;6.82;5.10;;;;;;;13.88;100.00;99278.47;5111420;28;20052;-70
2022/09/17 01:24:06;;;;;;;7.60;5.30;;;;;;;14.00;100.00;99288.09;5093636;28;20501;-70
2022/09/17 01:27:30;;;;;;;6.72;4.72;;;;;;;13.87;100.00;99290.16;5111966;28;20040;-69
2022/09/17 01:30:14;;;;;;;7.85;5.03;;;;;;;13.90;100.00;99287.22;5029028;28;20508;-69
2022/09/17 01:32:47;;;;;;;8.23;4.95;;;;;;;13.96;100.00;99298.25;5028982;28;20084;-69
2022/09/17 01:35:20;;;;;;;7.40;5.20;;;;;;;13.98;100.00;99304.31;5092422;28;20122;-69
2022/09/17 01:38:00;;;;;;;6.75;5.03;;;;;;;13.89;100.00;99307.81;5115525;28;20088;-70
2022/09/17 01:40:37;;;;;;;6.28;4.65;;;;;;;13.81;100.00;99307.66;5115040;28;20105;-69
2022/09/17 01:43:09;;;;;;;6.43;4.05;;;;;;;13.77;100.00;99306.22;5115174;28;20043;-69
2022/09/17 01:45:43;;;;;;;7.03;3.85;;;;;;;13.69;100.00;99309.56;5114943;28;20054;-69
2022/09/17 01:48:17;;;;;;;7.22;4.50;;;;;;;13.69;100.00;99314.06;5114919;28;20047;-69
2022/09/17 01:50:50;;;;;;;7.25;4.90;;;;;;;13.65;100.00;99321.53;5115224;28;20047;-69
2022/09/17 01:53:21;;;;;;;;;;;;;;;13.80;100.00;99326.53;5115163;28;20048;-71
2022/09/17 01:55:54;;;;;;;6.65;3.92;;;;;;;13.73;100.00;99335.13;5114871;28;19941;-70
2022/09/17 01:58:25;;;;;;;6.70;3.97;;;;;;;13.72;100.00;99336.13;5115016;28;20040;-71
2022/09/17 02:01:00;;;;;;;9.02;4.63;;;;;;;13.67;100.00;99327.63;5114963;28;20044;-70
2022/09/17 02:03:35;;;;;;;6.68;4.10;;;;;;;13.70;100.00;99323.81;5114581;28;20039;-69
2022/09/17 02:06:08;;;;;;;7.85;4.40;;;;;;;13.71;100.00;99326.38;5114886;28;20036;-71
2022/09/17 02:08:43;;;;;;;6.82;3.83;;;;;;;13.57;100.00;99316.00;5114738;28;20452;-71
2022/09/17 02:11:14;;;;;;;8.23;4.45;;;;;;;13.67;100.00;99318.72;5114366;28;20469;-71
2022/09/17 02:13:47;;;;;;;7.68;4.07;;;;;;;13.61;100.00;99305.88;5114669;28;20123;-69
2022/09/17 02:16:20;;;;;;;9.82;4.00;;;;;;;13.63;100.00;99322.66;5114222;28;20043;-69
2022/09/17 02:18:56;;;;;;;8.15;4.07;;;;;;;13.61;100.00;99314.78;5114347;28;20036;-69
2022/09/17 02:21:32;;;;;;;6.32;4.00;;;;;;;13.65;100.00;99313.50;5113913;28;20056;-69
2022/09/17 02:24:11;;;;;;;6.70;3.90;;;;;;;13.75;100.00;99316.22;5114381;28;20039;-69
2022/09/17 02:26:45;;;;;;;6.78;4.13;;;;;;;13.78;100.00;99307.06;5114316;28;20043;-70
2022/09/17 02:29:21;;;;;;;5.68;4.20;;;;;;;13.73;100.00;99304.81;5114312;28;20044;-71
2022/09/17 02:31:49;;;;;;;6.30;3.60;;;;;;;13.62;100.00;99307.59;5114480;28;20059;-71
2022/09/17 02:34:21;;;;;;;5.03;3.92;;;;;;;13.62;100.00;99308.44;5114087;28;20044;-71
2022/09/17 02:36:49;;;;;;;7.80;4.13;;;;;;;13.56;100.00;99302.75;5114426;28;20067;-71
2022/09/17 02:39:17;;;;;;;5.40;3.92;;;;;;;13.55;100.00;99307.25;5113888;28;20383;-71
2022/09/17 02:41:53;;;;;;;7.40;4.00;;;;;;;13.68;100.00;99302.50;5113908;28;20040;-71
2022/09/17 02:44:29;;;;;;;5.78;4.05;;;;;;;13.65;100.00;99297.44;5113965;28;20040;-71
2022/09/17 02:47:19;;;;;;;6.68;3.60;;;;;;;13.56;100.00;99289.34;5095768;28;20052;-70
2022/09/17 02:50:15;;;;;;;7.13;3.92;;;;;;;13.65;100.00;99281.34;5114075;28;20433;-71
2022/09/17 02:52:48;;;;;;;;;;;;;;;13.72;100.00;99276.31;5114548;28;20039;-70
2022/09/17 02:55:19;;;;;;;6.35;3.33;;;;;;;13.53;100.00;99269.03;5113863;28;19965;-70
2022/09/17 02:57:53;;;;;;;6.82;4.03;;;;;;;13.58;100.00;99264.13;5113745;28;20457;-70
2022/09/17 03:00:23;;;;;;;6.53;4.20;;;;;;;13.39;100.00;99256.00;5113422;28;20465;-70
2022/09/17 03:02:58;;;;;;;5.35;3.40;;;;;;;13.37;100.00;99261.50;5113846;28;20051;-70
2022/09/17 03:05:29;;;;;;;8.20;3.80;;;;;;;13.51;100.00;99257.63;5113434;28;20040;-71
2022/09/17 03:08:00;;;;;;;8.68;4.20;;;;;;;13.51;100.00;99268.34;5113454;28;20134;-68
2022/09/17 03:10:29;;;;;;;8.45;4.13;;;;;;;13.33;100.00;99249.38;5094870;28;20472;-69
2022/09/17 03:12:57;;;;;;;6.45;3.88;;;;;;;13.53;100.00;99246.75;5113295;28;20118;-69
2022/09/17 03:15:25;;;;;;;6.97;3.83;;;;;;;13.28;100.00;99250.72;5113318;28;20397;-68
2022/09/17 03:17:53;;;;;;;5.80;4.15;;;;;;;13.30;100.00;99233.53;5113294;28;20405;-68
2022/09/17 03:20:22;;;;;;;7.55;3.97;;;;;;;13.24;100.00;99228.75;5094314;28;20054;-71
2022/09/17 03:22:52;;;;;;;6.50;4.05;;;;;;;13.31;100.00;99240.59;5113401;28;20078;-72
2022/09/17 03:25:20;;;;;;;7.45;3.85;;;;;;;13.13;100.00;99210.91;5113175;28;20047;-71
2022/09/17 03:27:48;;;;;;;6.15;4.20;;;;;;;13.08;100.00;99198.88;5112956;28;20493;-71
2022/09/17 03:30:17;;;;;;;6.95;4.30;;;;;;;13.24;100.00;99185.06;5112872;28;20058;-71
2022/09/17 03:32:45;;;;;;;8.48;4.82;;;;;;;13.18;100.00;99176.53;5113205;28;20110;-71
2022/09/17 03:35:14;;;;;;;7.68;4.10;;;;;;;13.13;100.00;99172.56;5113011;28;20040;-72
2022/09/17 03:37:47;;;;;;;6.97;4.18;;;;;;;13.17;100.00;99174.84;5113185;28;20047;-72
2022/09/17 03:40:16;;;;;;;6.07;4.13;;;;;;;13.35;100.00;99172.41;5113335;28;20092;-72
2022/09/17 03:42:45;;;;;;;6.65;3.85;;;;;;;13.35;100.00;99161.69;5113113;28;20046;-73
2022/09/17 03:45:13;;;;;;;5.97;4.07;;;;;;;13.26;100.00;99172.38;5112756;28;20047;-72
2022/09/17 03:47:41;;;;;;;6.28;3.75;;;;;;;13.24;100.00;99168.97;5112941;28;20142;-73
2022/09/17 03:50:10;;;;;;;8.77;4.22;;;;;;;13.23;100.00;99172.66;5113007;28;20039;-73
2022/09/17 03:52:38;;;;;;;6.28;4.30;;;;;;;13.22;100.00;99166.44;5112825;28;20044;-73
2022/09/17 03:55:07;;;;;;;8.25;4.40;;;;;;;13.14;100.00;99174.28;5112984;28;20101;-74
2022/09/17 03:57:36;;;;;;;5.97;4.45;;;;;;;13.08;100.00;99164.94;5112009;28;20036;-71
2022/09/17 04:00:06;;;;;;;7.78;4.22;;;;;;;13.14;100.00;99171.59;5094525;28;20054;-71
2022/09/17 04:02:34;;;;;;;9.20;4.20;;;;;;;13.15;100.00;99176.81;5112238;28;20035;-70
2022/09/17 04:05:03;;;;;;;7.88;4.28;;;;;;;12.89;100.00;99180.91;5112286;28;20040;-70
2022/09/17 04:07:31;;;;;;;7.43;4.72;;;;;;;13.05;100.00;99189.31;5112033;28;20043;-70
2022/09/17 04:10:00;;;;;;;7.65;4.47;;;;;;;13.09;100.00;99188.03;5112325;28;20036;-69
2022/09/17 04:12:28;;;;;;;9.45;4.15;;;;;;;13.20;100.00;99183.59;5112181;28;20040;-70
2022/09/17 04:14:57;;;;;;;7.30;4.32;;;;;;;13.28;100.00;99191.81;5112282;28;20093;-70
2022/09/17 04:17:25;;;;;;;6.05;4.35;;;;;;;13.09;100.00;99193.41;5112103;28;20039;-70
2022/09/17 04:19:54;;;;;;;6.70;3.92;;;;;;;12.89;100.00;99194.28;5111928;28;20092;-70
2022/09/17 04:22:22;;;;;;;6.28;4.00;;;;;;;12.85;100.00;99190.19;5112202;28;20059;-69
2022/09/17 04:24:50;;;;;;;7.43;4.35;;;;;;;12.93;100.00;99176.97;5112382;28;20040;-69
2022/09/17 04:27:18;;;;;;;8.13;4.10;;;;;;;12.86;100.00;99165.13;5111948;28;20050;-69
2022/09/17 04:29:47;;;;;;;5.70;3.95;;;;;;;12.87;100.00;99182.88;5112173;28;20039;-70
2022/09/17 04:32:16;;;;;;;6.32;3.92;;;;;;;12.94;100.00;99178.69;5112135;28;20055;-70
2022/09/17 04:34:44;;;;;;;5.25;3.88;;;;;;;12.94;100.00;99185.88;5112299;28;20043;-70
2022/09/17 04:37:12;;;;;;;8.48;4.18;;;;;;;12.84;100.00;99173.28;5112349;28;20105;-69
2022/09/17 04:39:40;;;;;;;9.02;4.47;;;;;;;12.84;100.00;99175.97;5111958;28;20073;-69
2022/09/17 04:42:08;;;;;;;7.60;4.20;;;;;;;12.85;100.00;99174.13;5112245;28;20101;-69
2022/09/17 04:44:36;;;;;;;8.75;4.25;;;;;;;12.86;100.00;99178.50;5111800;28;20127;-70
2022/09/17 04:47:04;;;;;;;6.43;3.85;;;;;;;12.84;100.00;99156.38;5112051;28;20375;-69
2022/09/17 04:49:34;;;;;;;7.18;4.50;;;;;;;12.86;100.00;99170.47;5111961;28;20053;-69
2022/09/17 04:52:02;;;;;;;6.82;4.05;;;;;;;12.93;100.00;99160.91;5112019;28;20048;-69
2022/09/17 04:54:30;;;;;;;7.10;3.70;;;;;;;12.87;100.00;99161.47;5093478;28;20452;-69
2022/09/17 04:56:59;;;;;;;12.15;3.80;;;;;;;12.89;100.00;99156.81;5111909;28;20044;-70
2022/09/17 04:59:27;;;;;;;6.18;4.07;;;;;;;12.90;100.00;99155.81;5111528;28;20485;-70
2022/09/17 05:01:55;;;;;;;5.40;3.50;;;;;;;12.99;100.00;99159.53;5093664;28;20048;-69
2022/09/17 05:04:24;;;;;;;7.13;3.67;;;;;;;12.95;100.00;99180.38;5111965;28;20039;-70
2022/09/17 05:06:53;;;;;;;7.22;3.90;;;;;;;13.00;100.00;99169.25;5112069;28;20050;-70
2022/09/17 05:09:21;;;;;;;5.45;3.63;;;;;;;12.98;100.00;99169.41;5112478;28;20470;-72
2022/09/17 05:11:49;;;;;;;5.97;3.60;;;;;;;12.92;100.00;99182.44;5115771;28;20513;-69
2022/09/17 05:14:17;;;;;;;5.32;3.67;;;;;;;12.92;100.00;99180.63;5115952;28;20036;-69
2022/09/17 05:16:45;;;;;;;8.18;4.03;;;;;;;13.04;100.00;99190.28;5096993;28;20489;-70
2022/09/17 05:19:15;;;;;;;8.25;3.60;;;;;;;13.09;100.00;99190.72;5115086;28;20104;-69
2022/09/17 05:21:43;;;;;;;5.55;3.70;;;;;;;12.96;100.00;99192.78;5114753;28;20355;-70
2022/09/17 05:24:12;;;;;;;6.53;3.45;;;;;;;13.06;100.00;99199.03;5115300;28;20360;-71
2022/09/17 05:26:40;;;;;;;6.78;3.67;;;;;;;13.02;100.00;99197.56;5115053;28;20140;-69
2022/09/17 05:29:09;;;;;;;11.55;4.15;;;;;;;12.93;100.00;99193.03;5115413;28;20043;-69
2022/09/17 05:31:37;;;;;;;7.97;3.92;;;;;;;12.93;100.00;99187.66;5115201;28;20443;-70
2022/09/17 05:34:05;;;;;;;8.13;3.70;;;;;;;12.95;100.00;99200.94;5115262;28;20040;-69
2022/09/17 05:36:33;;;;;;;8.25;4.00;;;;;;;12.95;100.00;99196.44;5115123;28;20040;-70
2022/09/17 05:39:01;;;;;;;6.68;4.10;;;;;;;13.05;100.00;99205.38;5115115;28;20043;-69
2022/09/17 05:41:31;;;;;;;8.55;4.38;;;;;;;13.08;100.00;99205.09;5114701;28;20044;-70
2022/09/17 05:43:59;;;;;;;7.22;3.60;;;;;;;13.05;100.00;99208.03;5114720;28;20044;-70
2022/09/17 05:46:27;;;;;;;6.85;3.97;;;;;;;13.09;100.00;99193.41;5114636;28;20042;-74
2022/09/17 05:48:55;;;;;;;6.93;3.60;;;;;;;13.01;100.00;99203.91;5115023;28;20084;-72
2022/09/17 05:51:24;;;;;;;6.72;3.60;;;;;;;12.88;100.00;99212.16;5114145;28;20075;-74
2022/09/17 05:53:56;;;;;;;5.22;3.60;;;;;;;13.07;100.00;99221.28;5114897;28;20073;-70
2022/09/17 05:56:25;;;;;;;5.50;3.17;;;;;;;13.20;100.00;99226.44;5114480;28;20075;-71
2022/09/17 05:58:57;;;;;;;6.80;3.92;;;;;;;13.15;100.00;99229.50;5114660;28;20055;-70
2022/09/17 06:01:25;;;;;;;5.28;3.67;;;;;;;13.05;100.00;99234.81;5114438;28;20039;-70
2022/09/17 06:03:53;;;;;;;7.80;3.30;;;;;;;13.17;100.00;99231.06;5114338;28;20047;-70
2022/09/17 06:06:21;;;;;;;8.32;3.28;;;;;;;13.11;100.00;99228.06;5114320;28;20549;-69
2022/09/17 06:08:50;;;;;;;9.82;3.78;;;;;;;13.12;100.00;99235.97;5114960;28;20361;-69
2022/09/17 06:11:18;;;;;;;8.00;3.88;;;;;;;12.97;100.00;99234.63;5114542;28;20047;-70
2022/09/17 06:13:46;;;;;;;7.60;3.50;;;;;;;13.05;100.00;99229.47;5114185;28;20043;-71
2022/09/17 06:16:16;;;;;;;6.25;3.10;;;;;;;12.92;100.00;99244.00;5114322;28;20119;-70
2022/09/17 06:18:44;;;;;;;5.13;3.60;;;;;;;12.94;100.00;99236.72;5114277;28;20485;-70
2022/09/17 06:21:12;;;;;;;5.95;3.30;;;;;;;13.01;100.00;99219.97;5113569;28;20060;-70
2022/09/17 06:23:42;;;;;;;6.88;3.50;;;;;;;13.11;100.00;99222.72;5095926;28;20051;-70
2022/09/17 06:26:11;;;;;;;6.85;3.03;;;;;;;13.17;100.00;99206.97;5114407;28;20071;-69
2022/09/17 06:28:39;;;;;;;5.28;3.03;;;;;;;13.14;100.00;99206.41;5114175;28;20040;-72
2022/09/17 06:31:11;;;;;;;7.43;2.90;;;;;;;13.22;100.00;99213.78;5095772;28;20055;-70
2022/09/17 06:33:40;;;;;;;5.70;3.03;;;;;;;13.15;100.00;99216.97;5095797;28;20448;-70
2022/09/17 06:36:11;;;;;;;5.20;3.00;;;;;;;13.09;100.00;99228.19;5095916;28;20047;-75
2022/09/17 06:38:42;;;;;;;4.90;3.22;;;;;;;13.09;100.00;99235.38;5096764;28;20035;-76
2022/09/17 06:41:11;;;;;;;6.07;3.08;;;;;;;13.13;100.00;99229.66;5114281;28;20117;-75
2022/09/17 06:43:39;;;;;;;6.40;3.00;;;;;;;13.16;100.00;99226.69;5117757;28;20039;-73
2022/09/17 06:46:07;;;;;;;7.50;3.20;;;;;;;13.22;100.00;99232.50;5095622;28;20494;-74
2022/09/17 06:48:37;;;;;;;6.97;3.75;;;;;;;13.13;100.00;99235.00;5113900;28;20044;-74
2022/09/17 06:51:08;;;;;;;7.40;3.28;;;;;;;13.09;100.00;99238.91;5113903;28;20383;-73
2022/09/17 06:53:38;;;;;;;5.00;2.78;;;;;;;12.95;100.00;99233.06;5113441;28;20047;-73
2022/09/17 06:56:08;;;;;;;5.25;3.38;;;;;;;13.06;100.00;99236.50;5113699;28;20051;-72
2022/09/17 06:58:37;;;;;;;5.90;3.03;;;;;;;13.09;100.00;99248.78;5113410;28;20035;-71
2022/09/17 07:01:05;;;;;;;7.15;2.92;;;;;;;13.11;100.00;99249.47;5113581;28;20123;-72
2022/09/17 07:03:34;;;;;;;5.32;3.20;;;;;;;13.15;100.00;99251.78;5095101;28;20073;-72
2022/09/17 07:06:03;;;;;;;5.97;2.80;;;;;;;13.13;100.00;99248.38;5113386;28;20044;-72
2022/09/17 07:08:34;;;;;;;6.68;2.80;;;;;;;13.24;100.00;99252.00;5112971;28;20119;-70
2022/09/17 07:11:02;;;;;;;5.72;2.97;;;;;;;13.14;100.00;99250.09;5113456;28;20043;-69
2022/09/17 07:13:30;;;;;;;7.80;3.17;;;;;;;13.21;100.00;99249.56;5113300;28;20089;-70
2022/09/17 07:16:00;;;;;;;5.70;3.03;;;;;;;13.21;100.00;99249.56;5113500;28;20394;-69
2022/09/17 07:18:29;;;;;;;4.63;2.70;;;;;;;13.23;100.00;99255.66;5112820;28;20100;-70
2022/09/17 07:20:59;;;;;;;5.13;2.80;;;;;;;13.09;100.00;99252.28;5112819;28;20051;-72
2022/09/17 07:23:29;;;;;;;6.40;2.83;;;;;;;13.15;100.00;99257.13;5113153;28;20065;-73
2022/09/17 07:26:00;;;;;;;4.60;3.03;;;;;;;13.21;100.00;99244.22;5113131;28;20047;-72
2022/09/17 07:28:29;;;;;;;5.78;3.30;;;;;;;13.38;100.00;99247.13;5113004;28;20047;-73
2022/09/17 07:30:57;;;;;;;5.95;3.25;;;;;;;13.38;100.00;99249.78;5112829;28;20388;-76
2022/09/17 07:33:27;;;;;;;7.57;3.30;;;;;;;13.37;100.00;99249.94;5111963;28;20069;-70
2022/09/17 07:35:56;;;;;;;5.10;3.20;;;;;;;13.43;100.00;99241.38;5112965;28;20051;-70
2022/09/17 07:38:25;;;;;;;5.97;2.67;;;;;;;13.35;100.00;99247.41;5113031;28;20497;-70
2022/09/17 07:40:59;;;;;;;5.90;3.10;;;;;;;13.46;100.00;99249.97;5112441;28;20049;-75
2022/09/17 07:43:29;;;;;;;6.97;3.13;;;;;;;13.81;100.00;99248.69;5094463;28;20052;-75
2022/09/17 07:45:59;;;;;;;6.13;2.85;;;;;;;13.94;100.00;99253.78;5094199;28;20413;-76
2022/09/17 07:48:28;;;;;;;6.25;2.97;;;;;;;14.13;100.00;99253.81;5111928;28;20130;-73
2022/09/17 07:50:56;;;;;;;5.97;2.90;;;;;;;14.16;100.00;99264.25;5112737;28;20341;-72
2022/09/17 07:53:25;;;;;;;6.20;2.90;;;;;;;14.16;100.00;99258.06;5112831;28;20503;-72
2022/09/17 07:55:54;;;;;;;6.13;2.78;;;;;;;14.05;100.00;99261.72;5112532;28;20046;-73
2022/09/17 07:58:28;;;;;;;5.93;2.72;;;;;;;14.07;100.00;99259.72;5112913;28;20499;-71
2022/09/17 08:01:01;;;;;;;4.25;2.90;;;;;;;14.26;100.00;99254.41;5112859;28;20046;-73
2022/09/17 08:03:29;;;;;;;6.13;3.25;;;;;;;14.32;100.00;99253.00;5113104;28;20097;-71
2022/09/17 08:06:03;;;;;;;6.57;3.10;;;;;;;14.35;100.00;99247.34;5112640;28;20524;-73
2022/09/17 08:08:32;;;;;;;6.28;3.03;;;;;;;14.35;100.00;99258.06;5112712;28;20131;-75
2022/09/17 08:11:02;;;;;;;7.70;3.00;;;;;;;14.25;100.00;99271.47;5109681;28;20048;-74
2022/09/17 08:13:32;;;;;;;6.65;2.92;;;;;;;14.22;100.00;99271.78;5112227;28;20075;-71
2022/09/17 08:16:01;;;;;;;4.70;2.67;;;;;;;14.25;100.00;99279.53;5112468;28;20495;-74
2022/09/17 08:18:29;;;;;;;5.78;2.72;;;;;;;14.21;100.00;99294.22;5112330;28;20050;-73
2022/09/17 08:20:58;;;;;;;5.63;2.97;;;;;;;14.00;100.00;99290.78;5111978;28;20100;-73
2022/09/17 08:23:27;;;;;;;7.57;2.80;;;;;;;13.89;100.00;99293.56;5089681;28;20127;-69
2022/09/17 08:25:58;;;;;;;5.50;2.70;;;;;;;13.79;100.00;99298.03;5091806;28;20058;-72
2022/09/17 08:28:28;;;;;;;5.53;2.95;;;;;;;13.82;100.00;99295.09;5091707;28;20040;-73
2022/09/17 08:31:00;;;;;;;6.53;2.88;;;;;;;14.17;100.00;99302.66;5091591;28;20061;-73
2022/09/17 08:33:31;;;;;;;5.90;2.60;;;;;;;14.08;100.00;99293.59;5073364;28;20082;-70
2022/09/17 08:36:00;;;;;;;7.13;2.88;;;;;;;14.35;100.00;99289.44;5091732;28;20105;-72
2022/09/17 08:38:29;;;;;;;6.20;2.70;;;;;;;14.30;100.00;99281.81;5091622;28;20079;-72
2022/09/17 08:41:15;;;;;;;5.47;2.70;;;;;;;14.33;100.00;99282.38;5089152;28;20048;-72
2022/09/17 08:43:50;;;;;;;4.72;2.83;;;;;;;14.18;100.00;99283.75;5112938;28;20085;-72
2022/09/17 08:46:20;;;;;;;8.45;2.80;;;;;;;14.56;100.00;99293.69;5115829;28;20104;-72
2022/09/17 08:48:56;;;;;;;4.68;2.78;;;;;;;14.32;100.00;99299.44;5115954;28;20067;-71
2022/09/17 08:51:36;;;;;;;6.18;2.65;;;;;;;14.30;100.00;99285.34;5115938;28;20340;-72
2022/09/17 08:54:11;;;;;;;7.10;2.90;;;;;;;14.40;100.00;99271.09;5115520;28;20078;-75
2022/09/17 08:56:43;;;;;;;5.60;3.20;;;;;;;14.38;100.00;99263.19;5115653;28;20044;-74
2022/09/17 08:59:21;;;;;;;7.32;3.22;;;;;;;14.24;100.00;99267.09;5096588;28;20134;-73
2022/09/17 09:01:59;;;;;;;7.57;3.47;;;;;;;14.39;100.00;99272.09;5115607;28;20429;-72
2022/09/17 09:05:02;;;;;;;5.15;3.45;;;;;;;14.14;100.00;99279.66;5116251;28;20111;-71
2022/09/17 09:07:36;;;;;;;5.82;3.50;;;;;;;14.07;100.00;99274.97;5114176;28;20085;-72
2022/09/17 09:10:14;;;;;;;5.13;3.20;;;;;;;13.98;100.00;99279.31;5115136;28;20040;-73
2022/09/17 09:12:44;;;;;;;5.43;3.53;;;;;;;14.06;100.00;99282.19;5115967;28;20036;-73
2022/09/17 09:15:34;;;;;;;6.03;3.13;;;;;;;13.76;100.00;99299.16;5115661;28;20486;-73
2022/09/17 09:18:13;;;;;;;6.80;3.10;;;;;;;13.70;100.00;99289.84;5097337;28;20059;-74
2022/09/17 09:20:50;;;;;;;5.07;2.97;;;;;;;13.80;100.00;99297.03;5115489;28;20128;-77
2022/09/17 09:23:27;;;;;;;5.85;3.00;;;;;;;13.67;100.00;99300.81;5096998;28;20065;-75
2022/09/17 09:26:04;;;;;;;5.03;3.38;;;;;;;13.54;100.00;99297.53;5115734;28;20040;-77
2022/09/17 09:28:50;;;;;;;6.93;3.53;;;;;;;13.59;100.00;99287.25;5097387;28;20058;-78
2022/09/17 09:31:39;;;;;;;5.95;3.30;;;;;;;13.65;100.00;99299.25;5115682;28;20039;-76
2022/09/17 09:34:10;;;;;;;6.45;3.40;;;;;;;13.83;100.00;99288.75;5096998;28;20092;-72
2022/09/17 09:36:39;;;;;;;7.80;3.50;;;;;;;13.99;100.00;99283.69;5115404;28;20047;-75
2022/09/17 09:39:15;;;;;;;5.10;3.42;;;;;;;13.86;100.00;99285.78;5115375;28;20050;-75
2022/09/17 09:41:47;;;;;;;5.07;3.22;;;;;;;13.98;100.00;99276.66;5114922;28;20040;-74
2022/09/17 09:44:16;;;;;;;7.60;3.30;;;;;;;14.20;100.00;99289.84;5115583;28;20059;-74
2022/09/17 09:47:12;;;;;;;7.82;3.53;;;;;;;14.23;100.00;99289.56;5114877;28;20051;-75
2022/09/17 09:49:55;;;;;;;5.70;3.22;;;;;;;14.18;100.00;99299.84;5115199;28;20447;-73
2022/09/17 09:52:40;;;;;;;8.57;3.10;;;;;;;14.31;100.00;99300.44;5096016;28;20083;-73
2022/09/17 09:55:39;;;;;;;7.25;3.17;;;;;;;14.16;100.00;99295.59;5113042;28;20095;-75
2022/09/17 09:58:17;;;;;;;5.07;3.10;;;;;;;14.14;100.00;99303.78;5114481;28;20069;-76
2022/09/17 10:00:47;;;;;;;9.13;3.50;;;;;;;14.23;100.00;99297.59;5114654;28;20069;-75
2022/09/17 10:03:20;;;;;;;7.00;3.67;;;;;;;14.25;100.00;99292.09;5115008;28;20046;-71
2022/09/17 10:05:57;;;;;;;;;;;;;;;14.41;100.00;99315.72;5115136;28;20043;-74
2022/09/17 10:08:26;;;;;;;6.18;3.10;;;;;;;14.16;100.00;99306.31;5115036;28;19935;-77
2022/09/17 10:10:58;;;;;;;5.13;2.83;;;;;;;14.23;100.00;99299.44;5114329;28;20047;-70
2022/09/17 10:13:27;;;;;;;8.35;3.42;;;;;;;14.25;100.00;99290.25;5096101;28;20442;-71
2022/09/17 10:15:56;;;;;;;5.22;3.15;;;;;;;14.13;100.00;99272.59;5113929;28;20529;-71
2022/09/17 10:18:25;;;;;;;5.00;3.00;;;;;;;14.36;100.00;99269.66;5096136;28;20081;-70
2022/09/17 10:20:59;;;;;;;7.03;2.83;;;;;;;14.37;100.00;99271.34;5113765;28;20086;-71
2022/09/17 10:23:30;;;;;;;8.75;3.05;;;;;;;14.59;100.00;99273.81;5096208;28;20126;-71
2022/09/17 10:25:58;;;;;;;6.50;3.15;;;;;;;14.48;100.00;99279.31;5113859;28;20044;-70
2022/09/17 10:28:35;;;;;;;8.25;2.90;;;;;;;14.31;100.00;99270.94;5095495;28;20055;-71
2022/09/17 10:31:08;;;;;;;6.30;3.00;;;;;;;14.41;100.00;99264.72;5095704;28;20049;-71
2022/09/17 10:33:40;;;;;;;5.97;2.33;;;;;;;14.58;100.00;99250.66;5114363;28;20054;-71
2022/09/17 10:36:14;;;;;;;5.40;2.70;;;;;;;14.58;100.00;99231.88;5114048;28;20104;-71
2022/09/17 10:38:42;;;;;;;;;;;;;;;14.76;100.00;99216.69;5114305;28;20052;-77
2022/09/17 10:41:20;;;;;;;4.28;2.50;;;;;;;14.57;100.00;99219.41;5113831;28;20343;-70
2022/09/17 10:43:49;;;;;;;5.53;2.17;;;;;;;14.48;100.00;99241.75;5095242;28;20055;-73
2022/09/17 10:46:21;;;;;;;6.07;2.30;;;;;;;14.51;100.00;99254.88;5095630;28;20071;-72
2022/09/17 10:49:05;;;;;;;6.20;2.67;;;;;;;14.32;100.00;99248.47;5113746;28;20123;-70
2022/09/17 10:51:35;;;;;;;4.85;2.40;;;;;;;14.55;100.00;99241.03;5113853;28;20035;-72
2022/09/17 10:54:17;;;;;;;7.97;2.50;;;;;;;14.76;100.00;99235.50;5095418;28;20058;-70
2022/09/17 10:56:51;;;;;;;7.10;2.60;;;;;;;14.83;100.00;99215.13;5113650;28;20493;-71
2022/09/17 10:59:48;;;;;;;6.10;2.20;;;;;;;14.77;100.00;99198.78;5114079;28;20447;-70
2022/09/17 11:02:40;;;;;;;6.13;2.17;;;;;;;14.98;100.00;99182.47;5113709;28;20039;-71
2022/09/17 11:05:33;;;;;;;5.28;1.90;;;;;;;14.84;100.00;99155.09;5113535;28;20045;-70
2022/09/17 11:08:13;;;;;;;5.75;1.77;;;;;;;15.00;100.00;99167.06;5110675;28;20096;-71
2022/09/17 11:10:49;;;;;;;6.57;2.00;;;;;;;14.88;100.00;99174.44;5095453;28;20055;-71
2022/09/17 11:13:27;;;;;;;4.38;1.80;;;;;;;14.73;100.00;99203.56;5113703;28;20126;-71
2022/09/17 11:16:09;;;;;;;3.92;2.00;;;;;;;14.53;100.00;99232.28;5113294;28;20067;-71
2022/09/17 11:18:40;;;;;;;5.00;1.92;;;;;;;14.48;100.00;99212.25;5095017;28;20057;-71
2022/09/17 11:21:47;;;;;;;3.33;1.70;;;;;;;14.45;100.00;99207.13;5112783;28;20059;-71
2022/09/17 11:24:47;;;;;;;6.40;1.90;;;;;;;14.43;100.00;99209.09;5095325;28;20070;-71
2022/09/17 11:27:51;;;;;;;5.28;2.10;;;;;;;14.31;100.00;99219.97;5095207;28;20059;-71
2022/09/17 11:30:22;;;;;;;4.45;1.88;;;;;;;14.46;100.00;99251.75;5113347;28;20051;-70
2022/09/17 11:33:12;;;;;;;4.38;1.88;;;;;;;14.22;100.00;99255.69;5113229;28;20040;-70
2022/09/17 11:35:45;;;;;;;7.80;2.13;;;;;;;14.30;100.00;99245.09;5092500;28;20044;-70
2022/09/17 11:38:20;;;;;;;4.55;1.65;;;;;;;14.60;100.00;99224.50;5113202;28;20040;-71
2022/09/17 11:40:59;;;;;;;4.15;1.50;;;;;;;14.58;100.00;99223.81;5112787;28;20043;-71
2022/09/17 11:43:30;;;;;;;6.65;2.00;;;;;;;14.60;100.00;99208.41;5094629;28;20058;-71
2022/09/17 11:46:03;;;;;;;3.25;1.65;;;;;;;14.60;100.00;99208.41;5094637;28;20058;-71
2022/09/17 11:48:38;;;;;;;;;;;;;;;14.54;100.00;99200.91;5094911;28;20468;-71
2022/09/17 11:51:14;;;;;;;4.10;1.40;;;;;;;14.50;100.00;99199.53;5112347;28;20292;-71
2022/09/17 11:53:46;;;;;;;3.50;1.58;;;;;;;14.62;100.00;99190.31;5112481;28;20081;-70